Time;durP1;ratioP1;P1;durP2;ratioP2;P2;SDS_P1;SDS_P2;PMS_P1;PMS_P2;Temp;Humidity;BMP_temperature;BMP_pressure;BME280_temperature;BME280_humidity;BME280_pressure;Samples;Min_cycle;Max_cycle;Signal;HPM_P1;HPM_P2
2023/12/18 00:00:28;;;;;;;11.25;6.07;;;;;;;6.77;100.00;102129.13;5101275;29;20402;-75
2023/12/18 00:02:58;;;;;;;10.85;5.80;;;;;;;6.74;100.00;102114.38;5102290;28;20122;-75
2023/12/18 00:05:28;;;;;;;9.68;5.55;;;;;;;6.76;100.00;102127.38;5093942;29;20043;-75
2023/12/18 00:07:59;;;;;;;10.75;5.90;;;;;;;6.78;100.00;102126.50;5103296;28;20114;-76
2023/12/18 00:10:29;;;;;;;9.93;5.80;;;;;;;6.75;100.00;102110.06;5099217;29;21314;-75
2023/12/18 00:13:00;;;;;;;10.57;6.03;;;;;;;6.75;100.00;102103.13;5109927;28;20032;-75
2023/12/18 00:15:30;;;;;;;10.27;6.22;;;;;;;6.79;100.00;102101.41;5104143;29;20039;-75
2023/12/18 00:18:00;;;;;;;10.32;5.95;;;;;;;6.78;100.00;102110.06;5110997;29;20067;-75
2023/12/18 00:20:30;;;;;;;13.80;6.38;;;;;;;6.80;100.00;102100.56;5109531;29;20031;-75
2023/12/18 00:23:01;;;;;;;12.35;6.80;;;;;;;6.75;100.00;102117.84;5098123;29;20051;-75
2023/12/18 00:25:32;;;;;;;10.20;5.75;;;;;;;6.73;100.00;102111.78;5102726;29;20030;-75
2023/12/18 00:28:02;;;;;;;12.48;6.80;;;;;;;6.73;100.00;102123.03;5101942;29;20030;-76
2023/12/18 00:30:32;;;;;;;12.27;6.75;;;;;;;6.75;100.00;102125.66;5114334;29;20027;-75
2023/12/18 00:33:03;;;;;;;12.35;5.90;;;;;;;6.71;100.00;102118.69;5101798;28;20085;-75
2023/12/18 00:35:33;;;;;;;14.25;6.70;;;;;;;6.73;100.00;102117.00;5112740;29;20033;-76
2023/12/18 00:38:03;;;;;;;12.48;6.70;;;;;;;6.72;100.00;102117.81;5102748;29;20057;-76
2023/12/18 00:40:34;;;;;;;13.18;6.82;;;;;;;6.78;100.00;102126.50;5105603;28;20034;-75
2023/12/18 00:43:04;;;;;;;13.52;7.22;;;;;;;6.75;100.00;102116.13;5099513;29;20023;-76
2023/12/18 00:45:35;;;;;;;16.00;7.22;;;;;;;6.73;100.00;102117.84;5095115;29;20376;-76
2023/12/18 00:48:05;;;;;;;11.50;6.65;;;;;;;6.69;100.00;102126.50;5102436;29;20114;-75
2023/12/18 00:50:36;;;;;;;12.07;6.97;;;;;;;6.73;100.00;102122.19;5099803;29;20035;-76
2023/12/18 00:53:06;;;;;;;11.52;6.55;;;;;;;6.63;100.00;102126.44;5107205;29;20031;-75
2023/12/18 00:55:36;;;;;;;12.45;6.53;;;;;;;6.70;100.00;102119.53;5112871;29;20039;-76
2023/12/18 00:58:07;;;;;;;10.15;6.32;;;;;;;6.62;100.00;102114.31;5102834;29;20118;-76
2023/12/18 01:00:37;;;;;;;11.55;6.22;;;;;;;6.66;100.00;102112.59;5110155;28;20023;-75
2023/12/18 01:03:07;;;;;;;12.15;6.97;;;;;;;6.65;100.00;102118.66;5102612;29;20069;-76
2023/12/18 01:05:37;;;;;;;12.85;6.60;;;;;;;6.59;100.00;102129.03;5106938;29;20122;-76
2023/12/18 01:08:08;;;;;;;14.48;7.18;;;;;;;6.59;100.00;102113.44;5107945;29;20489;-75
2023/12/18 01:10:38;;;;;;;14.18;7.13;;;;;;;6.62;100.00;102114.31;5103196;29;20027;-76
2023/12/18 01:13:08;;;;;;;14.45;7.25;;;;;;;6.56;100.00;102121.22;5105665;29;20034;-76
2023/12/18 01:15:39;;;;;;;13.40;7.50;;;;;;;6.50;100.00;102113.38;5090496;29;20031;-76
2023/12/18 01:18:09;;;;;;;13.10;6.75;;;;;;;6.50;100.00;102123.78;5100990;29;20033;-76
2023/12/18 01:20:39;;;;;;;14.93;7.97;;;;;;;6.41;100.00;102118.53;5100587;29;20512;-75
2023/12/18 01:23:10;;;;;;;13.50;7.22;;;;;;;6.45;100.00;102122.88;5104162;28;20038;-76
2023/12/18 01:25:40;;;;;;;13.00;7.50;;;;;;;6.44;100.00;102131.53;5102784;29;20058;-76
2023/12/18 01:28:10;;;;;;;11.90;6.95;;;;;;;6.44;100.00;102121.16;5113569;28;20309;-76
2023/12/18 01:30:40;;;;;;;13.52;7.55;;;;;;;6.45;100.00;102122.88;5106540;28;20027;-76
2023/12/18 01:33:11;;;;;;;15.88;7.88;;;;;;;6.44;100.00;102128.94;5095922;29;20091;-76
2023/12/18 01:35:41;;;;;;;13.32;7.50;;;;;;;6.46;100.00;102132.41;5105535;28;20023;-76
2023/12/18 01:38:12;;;;;;;15.20;7.75;;;;;;;6.46;100.00;102133.25;5106736;29;20063;-75
2023/12/18 01:40:44;;;;;;;13.73;7.18;;;;;;;6.55;100.00;102120.34;5101993;29;20547;-76
2023/12/18 01:43:27;;;;;;;15.02;7.70;;;;;;;6.47;100.00;102124.66;5105826;29;20478;-76
2023/12/18 01:46:00;;;;;;;15.63;8.07;;;;;;;6.48;100.00;102125.50;5110895;29;20039;-76
2023/12/18 01:48:31;;;;;;;17.20;8.52;;;;;;;6.50;100.00;102110.78;5101793;29;20069;-76
2023/12/18 01:51:02;;;;;;;15.43;8.07;;;;;;;6.51;100.00;102109.94;5106084;28;20030;-76
2023/12/18 01:53:39;;;;;;;14.52;7.63;;;;;;;6.54;100.00;102100.44;5111806;29;20034;-76
2023/12/18 01:56:11;;;;;;;14.63;7.63;;;;;;;6.55;100.00;102102.16;5108905;29;20028;-75
2023/12/18 01:58:44;;;;;;;19.77;8.52;;;;;;;6.56;100.00;102101.31;5113856;28;20238;-75
2023/12/18 02:01:14;;;;;;;14.95;8.10;;;;;;;6.51;100.00;102105.63;5096188;29;20027;-76
2023/12/18 02:03:45;;;;;;;14.75;8.02;;;;;;;6.49;100.00;102101.25;5098275;29;20027;-76
2023/12/18 02:06:18;;;;;;;15.75;7.60;;;;;;;6.47;100.00;102098.69;5100064;28;20163;-76
2023/12/18 02:08:48;;;;;;;15.23;7.30;;;;;;;6.50;100.00;102103.88;5105259;29;20638;-76
2023/12/18 02:11:19;;;;;;;16.48;8.23;;;;;;;6.42;100.00;102089.13;5101526;29;20107;-76
2023/12/18 02:13:49;;;;;;;16.00;8.43;;;;;;;6.37;100.00;102099.47;5111043;29;20118;-76
2023/12/18 02:16:22;;;;;;;14.98;8.27;;;;;;;6.36;100.00;102094.25;5108534;28;20512;-76
2023/12/18 02:18:52;;;;;;;15.82;8.60;;;;;;;6.32;100.00;102100.31;5108125;29;20397;-76
2023/12/18 02:21:22;;;;;;;14.18;7.97;;;;;;;6.32;100.00;102093.41;5103984;29;20038;-76
2023/12/18 02:23:53;;;;;;;12.00;7.30;;;;;;;6.35;100.00;102090.81;5106549;29;20682;-76
2023/12/18 02:26:23;;;;;;;14.90;7.22;;;;;;;6.30;100.00;102094.22;5107963;28;20488;-76
2023/12/18 02:28:53;;;;;;;17.05;8.52;;;;;;;6.32;100.00;102090.78;5108075;29;20032;-76
2023/12/18 02:31:24;;;;;;;15.30;8.13;;;;;;;6.28;100.00;102080.38;5107852;28;20093;-76
2023/12/18 02:33:54;;;;;;;16.42;8.13;;;;;;;6.27;100.00;102079.50;5103515;29;20082;-76
2023/12/18 02:36:24;;;;;;;16.33;7.97;;;;;;;6.26;100.00;102076.91;5105077;29;20031;-76
2023/12/18 02:38:55;;;;;;;17.05;7.85;;;;;;;6.29;100.00;102077.78;5105213;29;20039;-76
2023/12/18 02:41:25;;;;;;;13.57;7.75;;;;;;;6.33;100.00;102070.88;5105025;28;20034;-76
2023/12/18 02:43:57;;;;;;;18.40;8.57;;;;;;;6.32;100.00;102070.03;5112528;29;20078;-76
2023/12/18 02:46:27;;;;;;;15.05;8.15;;;;;;;6.20;100.00;102051.78;5107803;28;20036;-76
2023/12/18 02:48:57;;;;;;;14.80;7.90;;;;;;;6.19;100.00;102062.13;5103478;29;20031;-76
2023/12/18 02:51:27;;;;;;;14.50;7.82;;;;;;;6.22;100.00;102051.81;5107184;29;20914;-76
2023/12/18 02:53:58;;;;;;;14.90;7.85;;;;;;;6.22;100.00;102051.81;5104582;29;20125;-76
2023/12/18 02:56:28;;;;;;;13.90;7.90;;;;;;;6.29;100.00;102050.97;5112137;28;20031;-76
2023/12/18 02:58:58;;;;;;;13.30;7.20;;;;;;;6.25;100.00;102050.06;5106064;29;20095;-76
2023/12/18 03:01:29;;;;;;;14.55;8.18;;;;;;;6.23;100.00;102062.19;5101318;29;20126;-76
2023/12/18 03:03:59;;;;;;;15.48;7.90;;;;;;;6.25;100.00;102064.78;5105242;29;20031;-76
2023/12/18 03:06:29;;;;;;;16.08;7.82;;;;;;;6.17;100.00;102061.28;5104718;29;20600;-76
2023/12/18 03:08:59;;;;;;;14.77;7.70;;;;;;;6.16;100.00;102075.09;5102422;28;20033;-76
2023/12/18 03:11:30;;;;;;;14.30;7.47;;;;;;;6.11;100.00;102071.63;5096350;28;20034;-75
2023/12/18 03:14:00;;;;;;;13.18;7.50;;;;;;;6.14;100.00;102079.41;5092556;29;20113;-76
2023/12/18 03:16:31;;;;;;;14.45;7.68;;;;;;;6.13;100.00;102075.97;5097379;29;20031;-76
2023/12/18 03:19:01;;;;;;;12.35;7.03;;;;;;;6.19;100.00;102070.81;5102363;29;20030;-76
2023/12/18 03:21:32;;;;;;;15.10;8.27;;;;;;;6.18;100.00;102063.00;5106264;28;20040;-76
2023/12/18 03:24:02;;;;;;;14.93;7.82;;;;;;;6.19;100.00;102075.13;5103639;29;20031;-76
2023/12/18 03:26:32;;;;;;;14.73;7.93;;;;;;;6.19;100.00;102077.72;5097991;29;20490;-76
2023/12/18 03:29:03;;;;;;;14.65;7.85;;;;;;;6.11;100.00;102067.28;5107982;29;20095;-76
2023/12/18 03:31:34;;;;;;;15.15;7.85;;;;;;;6.14;100.00;102069.91;5087077;29;20114;-76
2023/12/18 03:34:04;;;;;;;14.70;7.57;;;;;;;6.14;100.00;102069.91;5093183;28;20438;-76
2023/12/18 03:36:35;;;;;;;13.43;7.88;;;;;;;6.11;100.00;102075.06;5102144;29;20386;-78
2023/12/18 03:39:05;;;;;;;15.23;8.05;;;;;;;6.10;100.00;102075.06;5104122;29;20027;-76
2023/12/18 03:41:35;;;;;;;14.38;8.02;;;;;;;6.23;100.00;102069.13;5085298;28;20298;-75
2023/12/18 03:44:06;;;;;;;14.30;7.55;;;;;;;6.30;100.00;102076.94;5091517;29;20209;-76
2023/12/18 03:46:36;;;;;;;15.30;7.97;;;;;;;6.17;100.00;102069.06;5097563;29;20024;-76
2023/12/18 03:49:06;;;;;;;13.32;7.50;;;;;;;6.20;100.00;102077.72;5105561;28;20031;-76
2023/12/18 03:51:36;;;;;;;13.50;7.15;;;;;;;6.18;100.00;102076.88;5100443;29;20049;-76
2023/12/18 03:54:07;;;;;;;14.50;7.30;;;;;;;6.25;100.00;102075.19;5102425;28;20063;-76
2023/12/18 03:56:37;;;;;;;13.90;7.25;;;;;;;6.25;100.00;102075.19;5094471;29;20404;-76
2023/12/18 03:59:07;;;;;;;15.23;8.05;;;;;;;6.27;100.00;102069.13;5100101;28;20024;-75
2023/12/18 04:01:38;;;;;;;15.73;7.65;;;;;;;6.19;100.00;102075.13;5091963;29;20028;-76
2023/12/18 04:04:08;;;;;;;12.25;6.85;;;;;;;6.27;100.00;102079.50;5102323;29;20032;-76
2023/12/18 04:06:42;;;;;;;14.23;7.88;;;;;;;6.28;100.00;102075.19;5099869;28;20031;-76
2023/12/18 04:09:13;;;;;;;15.73;7.78;;;;;;;6.25;100.00;102070.84;5090211;29;20107;-76
2023/12/18 04:11:43;;;;;;;12.02;7.05;;;;;;;6.32;100.00;102069.16;5094695;28;20512;-76
2023/12/18 04:14:13;;;;;;;15.57;7.90;;;;;;;6.34;100.00;102075.22;5100113;29;20126;-76
2023/12/18 04:16:43;;;;;;;11.88;7.28;;;;;;;6.26;100.00;102063.94;5096437;28;20543;-75
2023/12/18 04:19:14;;;;;;;13.65;7.50;;;;;;;6.29;100.00;102063.94;5095610;29;20038;-76
2023/12/18 04:21:44;;;;;;;14.10;7.18;;;;;;;6.28;100.00;102063.06;5098660;29;20785;-76
2023/12/18 04:24:14;;;;;;;13.70;7.82;;;;;;;6.31;100.00;102055.31;5099998;28;20039;-76
2023/12/18 04:26:45;;;;;;;13.65;6.88;;;;;;;6.35;100.00;102061.38;5092093;29;20060;-76
2023/12/18 04:29:17;;;;;;;13.68;7.28;;;;;;;6.35;100.00;102058.78;5109736;29;20031;-76
2023/12/18 04:31:50;;;;;;;11.00;6.25;;;;;;;6.32;100.00;102061.34;5086258;28;20063;-76
2023/12/18 04:34:20;;;;;;;14.45;6.63;;;;;;;6.39;100.00;102069.19;5095525;29;20082;-76
2023/12/18 04:36:50;;;;;;;11.38;6.72;;;;;;;6.35;100.00;102054.47;5097353;29;20024;-76
2023/12/18 04:39:21;;;;;;;12.55;6.50;;;;;;;6.32;100.00;102057.03;5099779;29;20027;-76
2023/12/18 04:41:51;;;;;;;12.75;6.82;;;;;;;6.28;100.00;102065.66;5107313;29;20551;-76
2023/12/18 04:44:23;;;;;;;13.45;7.05;;;;;;;6.32;100.00;102062.25;5106397;28;20561;-76
2023/12/18 04:46:53;;;;;;;11.43;6.63;;;;;;;6.36;100.00;102060.50;5104700;29;20043;-76
2023/12/18 04:49:24;;;;;;;11.75;6.63;;;;;;;6.27;100.00;102065.66;5088590;29;20393;-76
2023/12/18 04:51:54;;;;;;;11.38;6.57;;;;;;;6.16;100.00;102056.94;5091236;29;20127;-76
2023/12/18 04:54:24;;;;;;;15.63;6.95;;;;;;;6.22;100.00;102064.78;5108816;28;20245;-76
2023/12/18 04:56:55;;;;;;;14.00;7.40;;;;;;;6.11;100.00;102063.84;5096980;29;20329;-76
2023/12/18 04:59:25;;;;;;;14.32;7.38;;;;;;;6.13;100.00;102062.13;5105838;29;20501;-76
2023/12/18 05:01:55;;;;;;;13.77;7.45;;;;;;;6.16;100.00;102059.53;5100297;29;20049;-76
2023/12/18 05:04:26;;;;;;;15.98;7.25;;;;;;;6.09;100.00;102053.44;5099209;29;20396;-76
2023/12/18 05:06:56;;;;;;;15.73;8.02;;;;;;;6.05;100.00;102058.63;5109221;29;20091;-76
2023/12/18 05:09:26;;;;;;;23.13;8.68;;;;;;;6.14;100.00;102056.06;5105980;29;20658;-76
2023/12/18 05:11:56;;;;;;;18.15;8.20;;;;;;;6.08;100.00;102056.88;5107692;29;20123;-76
2023/12/18 05:14:27;;;;;;;18.30;9.02;;;;;;;6.17;100.00;102066.47;5107161;28;20036;-76
2023/12/18 05:16:57;;;;;;;16.35;8.40;;;;;;;6.03;100.00;102063.78;5103089;29;20040;-76
2023/12/18 05:19:27;;;;;;;20.08;8.60;;;;;;;6.16;100.00;102073.41;5109600;28;20493;-76
2023/12/18 05:21:57;;;;;;;17.10;8.60;;;;;;;6.14;100.00;102082.91;5101134;29;20037;-76
2023/12/18 05:24:28;;;;;;;16.42;8.57;;;;;;;6.14;100.00;102082.00;5105637;28;20043;-76
2023/12/18 05:26:58;;;;;;;17.48;8.48;;;;;;;6.25;100.00;102086.41;5102866;28;20028;-76
2023/12/18 05:29:28;;;;;;;21.38;10.00;;;;;;;6.18;100.00;102078.56;5098769;28;20061;-76
2023/12/18 05:31:59;;;;;;;21.90;9.30;;;;;;;6.16;100.00;102083.78;5105382;28;20368;-76
2023/12/18 05:34:29;;;;;;;17.60;8.55;;;;;;;6.17;100.00;102089.81;5106888;29;20035;-76
2023/12/18 05:37:01;;;;;;;23.98;10.00;;;;;;;6.16;100.00;102091.56;5105592;29;20042;-76
2023/12/18 05:39:32;;;;;;;22.88;9.20;;;;;;;6.07;100.00;102088.88;5107226;29;20031;-76
2023/12/18 05:42:02;;;;;;;18.15;9.15;;;;;;;6.08;100.00;102089.78;5106965;29;20040;-76
2023/12/18 05:44:32;;;;;;;17.88;8.95;;;;;;;6.11;100.00;102097.56;5091980;29;20095;-76
2023/12/18 05:47:03;;;;;;;20.20;8.73;;;;;;;6.16;100.00;102088.97;5102490;29;20114;-76
2023/12/18 05:49:33;;;;;;;23.08;9.60;;;;;;;5.98;100.00;102085.38;5106038;28;20023;-76
2023/12/18 05:52:04;;;;;;;22.30;9.95;;;;;;;5.99;100.00;102079.31;5110718;29;20552;-76
2023/12/18 05:54:34;;;;;;;17.63;9.32;;;;;;;5.99;100.00;102087.97;5108324;28;20032;-76
2023/12/18 05:57:04;;;;;;;18.58;9.43;;;;;;;6.05;100.00;102087.16;5104258;29;20034;-76
2023/12/18 05:59:34;;;;;;;16.65;9.13;;;;;;;6.03;100.00;102084.53;5102115;28;20263;-75
2023/12/18 06:02:05;;;;;;;19.95;9.55;;;;;;;6.01;100.00;102075.00;5095545;29;20035;-76
2023/12/18 06:04:36;;;;;;;21.00;10.00;;;;;;;6.01;100.00;102086.25;5106128;28;20509;-76
2023/12/18 06:07:06;;;;;;;20.52;9.30;;;;;;;6.00;100.00;102087.13;5104640;29;20162;-76
2023/12/18 06:09:36;;;;;;;21.70;10.00;;;;;;;5.94;100.00;102083.63;5103581;29;20094;-76
2023/12/18 06:12:07;;;;;;;25.55;9.65;;;;;;;5.88;100.00;102087.03;5108455;29;20508;-76
2023/12/18 06:14:37;;;;;;;21.10;10.13;;;;;;;5.92;100.00;102085.34;5108641;29;20035;-76
2023/12/18 06:17:09;;;;;;;21.20;9.90;;;;;;;5.95;100.00;102082.75;5107136;29;20031;-76
2023/12/18 06:19:40;;;;;;;19.13;9.63;;;;;;;6.02;100.00;102089.72;5100980;29;20397;-75
2023/12/18 06:22:11;;;;;;;24.02;10.43;;;;;;;6.06;100.00;102096.69;5103899;29;20039;-76
2023/12/18 06:24:41;;;;;;;23.27;10.35;;;;;;;6.00;100.00;102094.91;5100225;28;20517;-75
2023/12/18 06:27:12;;;;;;;29.05;10.80;;;;;;;6.00;100.00;102088.84;5101994;28;20041;-76
2023/12/18 06:29:43;;;;;;;21.90;10.60;;;;;;;6.04;100.00;102099.25;5097734;29;20035;-75
2023/12/18 06:32:14;;;;;;;21.90;10.88;;;;;;;6.08;100.00;102107.94;5104039;29;20034;-75
2023/12/18 06:34:44;;;;;;;23.13;11.15;;;;;;;6.09;100.00;102104.47;5096732;29;20494;-75
2023/12/18 06:37:14;;;;;;;21.77;10.32;;;;;;;6.18;100.00;102114.91;5109011;28;20023;-75
2023/12/18 06:39:45;;;;;;;22.95;11.20;;;;;;;6.20;100.00;102118.38;5104518;29;20033;-75
2023/12/18 06:42:15;;;;;;;30.10;13.07;;;;;;;6.16;100.00;102121.81;5106153;28;20032;-75
2023/12/18 06:44:46;;;;;;;21.30;10.65;;;;;;;6.14;100.00;102121.84;5107051;28;20484;-76
2023/12/18 06:47:16;;;;;;;20.80;11.18;;;;;;;6.23;100.00;102123.63;5109709;28;20035;-75
2023/12/18 06:49:46;;;;;;;23.65;9.90;;;;;;;6.20;100.00;102133.97;5106522;28;20028;-75
2023/12/18 06:52:17;;;;;;;19.50;10.02;;;;;;;6.23;100.00;102126.22;5106161;28;20031;-75
2023/12/18 06:54:47;;;;;;;19.45;10.35;;;;;;;6.14;100.00;102129.63;5108316;29;20079;-75
2023/12/18 06:57:17;;;;;;;20.17;10.57;;;;;;;6.17;100.00;102131.34;5109641;28;20078;-74
2023/12/18 06:59:48;;;;;;;26.67;10.93;;;;;;;6.20;100.00;102132.25;5099385;29;20035;-75
2023/12/18 07:02:18;;;;;;;22.92;10.45;;;;;;;6.21;100.00;102130.50;5099956;28;20035;-75
2023/12/18 07:04:48;;;;;;;27.00;11.88;;;;;;;6.12;100.00;102138.25;5106054;29;20035;-75
2023/12/18 07:07:18;;;;;;;26.75;12.93;;;;;;;6.16;100.00;102137.41;5110386;29;20019;-75
2023/12/18 07:09:50;;;;;;;23.52;11.82;;;;;;;6.14;100.00;102132.22;5102613;29;20028;-75
2023/12/18 07:12:21;;;;;;;21.42;10.88;;;;;;;6.16;100.00;102140.88;5102763;28;20082;-75
2023/12/18 07:14:51;;;;;;;28.75;12.75;;;;;;;6.20;100.00;102133.97;5104323;29;20063;-75
2023/12/18 07:17:21;;;;;;;21.25;10.30;;;;;;;6.31;100.00;102133.19;5106453;28;20026;-74
2023/12/18 07:19:52;;;;;;;24.77;11.85;;;;;;;6.11;100.00;102144.28;5107925;28;20288;-75
2023/12/18 07:22:22;;;;;;;22.70;11.68;;;;;;;6.11;100.00;102150.34;5103351;29;20075;-75
2023/12/18 07:24:52;;;;;;;28.48;11.60;;;;;;;6.12;100.00;102140.84;5106145;28;20040;-75
2023/12/18 07:27:22;;;;;;;25.30;11.90;;;;;;;6.21;100.00;102151.28;5108897;29;20131;-75
2023/12/18 07:29:53;;;;;;;24.05;11.50;;;;;;;6.27;100.00;102146.13;5108405;29;20042;-74
2023/12/18 07:32:23;;;;;;;24.40;11.55;;;;;;;6.27;100.00;102153.94;5109214;28;20031;-75
2023/12/18 07:34:53;;;;;;;21.45;11.80;;;;;;;6.23;100.00;102144.38;5100191;29;20115;-75
2023/12/18 07:37:24;;;;;;;28.60;12.55;;;;;;;6.32;100.00;102149.63;5106019;29;20023;-76
2023/12/18 07:39:59;;;;;;;25.05;12.15;;;;;;;6.38;100.00;102154.84;5102758;29;20034;-75
2023/12/18 07:42:29;;;;;;;27.08;12.13;;;;;;;6.43;100.00;102154.03;5104499;29;20048;-75
2023/12/18 07:44:59;;;;;;;30.98;13.77;;;;;;;6.47;100.00;102149.72;5104586;29;20035;-75
2023/12/18 07:47:29;;;;;;;34.05;14.45;;;;;;;6.42;100.00;102141.06;5111063;29;20375;-75
2023/12/18 07:50:00;;;;;;;24.83;11.70;;;;;;;6.44;100.00;102134.13;5108521;28;20627;-75
2023/12/18 07:52:30;;;;;;;22.40;12.05;;;;;;;6.51;100.00;102138.50;5112849;28;20026;-76
2023/12/18 07:55:01;;;;;;;32.85;13.27;;;;;;;6.42;100.00;102146.25;5104316;28;20404;-75
2023/12/18 07:57:32;;;;;;;24.13;12.23;;;;;;;6.56;100.00;102144.59;5101545;29;20028;-75
2023/12/18 08:00:03;;;;;;;23.40;11.90;;;;;;;6.50;100.00;102140.25;5106428;29;20492;-75
2023/12/18 08:02:33;;;;;;;24.52;11.20;;;;;;;6.59;100.00;102140.28;5101177;29;20076;-75
2023/12/18 08:05:04;;;;;;;24.30;11.25;;;;;;;6.62;100.00;102137.69;5113879;29;20468;-76
2023/12/18 08:07:34;;;;;;;25.23;11.57;;;;;;;6.68;100.00;102142.06;5104544;28;20097;-75
2023/12/18 08:10:05;;;;;;;22.52;11.23;;;;;;;6.70;100.00;102142.94;5100518;29;20066;-75
2023/12/18 08:12:35;;;;;;;22.92;11.15;;;;;;;6.66;100.00;102151.56;5112877;28;20027;-75
2023/12/18 08:15:06;;;;;;;23.35;11.18;;;;;;;6.63;100.00;102148.97;5109574;29;20106;-75
2023/12/18 08:17:38;;;;;;;20.33;10.23;;;;;;;6.62;100.00;102152.41;5101685;28;20031;-73
2023/12/18 08:20:09;;;;;;;23.50;9.93;;;;;;;6.61;100.00;102155.88;5098124;29;20082;-75
2023/12/18 08:22:39;;;;;;;20.92;10.93;;;;;;;6.62;100.00;102150.69;5104846;28;20441;-76
2023/12/18 08:25:10;;;;;;;23.40;10.90;;;;;;;6.65;100.00;102155.03;5107519;28;20062;-75
2023/12/18 08:27:40;;;;;;;22.95;10.30;;;;;;;6.57;100.00;102152.38;5112354;28;20038;-75
2023/12/18 08:30:11;;;;;;;18.92;10.05;;;;;;;6.52;100.00;102154.09;5111225;29;20039;-75
2023/12/18 08:32:41;;;;;;;22.08;10.35;;;;;;;6.65;100.00;102145.53;5115181;29;20027;-75
2023/12/18 08:35:12;;;;;;;21.42;9.82;;;;;;;6.64;100.00;102148.09;5113053;28;20027;-76
2023/12/18 08:37:42;;;;;;;19.83;10.80;;;;;;;6.64;100.00;102151.59;5109069;29;20035;-74
2023/12/18 08:40:13;;;;;;;21.50;10.65;;;;;;;6.66;100.00;102135.97;5107433;29;20027;-75
2023/12/18 08:42:43;;;;;;;21.55;10.52;;;;;;;6.69;100.00;102136.00;5108038;29;20027;-74
2023/12/18 08:45:13;;;;;;;21.77;11.07;;;;;;;6.64;100.00;102133.41;5108829;29;20503;-75
2023/12/18 08:47:44;;;;;;;16.75;9.20;;;;;;;6.65;100.00;102123.84;5107007;29;20142;-74
2023/12/18 08:50:14;;;;;;;25.10;10.02;;;;;;;6.69;100.00;102130.81;5115684;29;20031;-74
2023/12/18 08:52:44;;;;;;;18.83;10.10;;;;;;;6.71;100.00;102135.16;5110744;28;20035;-75
2023/12/18 08:55:15;;;;;;;19.92;9.80;;;;;;;6.70;100.00;102123.03;5115644;29;20067;-75
2023/12/18 08:57:45;;;;;;;19.55;9.77;;;;;;;6.72;100.00;102125.63;5099809;29;20485;-74
2023/12/18 09:00:16;;;;;;;19.90;9.65;;;;;;;6.67;100.00;102123.03;5103708;29;20028;-75
2023/12/18 09:02:46;;;;;;;20.92;9.60;;;;;;;6.79;100.00;102122.19;5104942;29;20062;-74
2023/12/18 09:05:17;;;;;;;21.40;10.77;;;;;;;6.81;100.00;102128.28;5105970;29;20063;-75
2023/12/18 09:07:49;;;;;;;19.67;9.73;;;;;;;6.87;100.00;102130.88;5107727;28;20040;-75
2023/12/18 09:10:22;;;;;;;27.98;11.18;;;;;;;6.82;100.00;102122.22;5106908;29;20552;-75
2023/12/18 09:12:52;;;;;;;27.10;9.98;;;;;;;6.86;100.00;102135.22;5114212;29;20050;-75
2023/12/18 09:15:23;;;;;;;23.70;10.15;;;;;;;6.84;100.00;102130.88;5103986;28;20054;-75
2023/12/18 09:17:53;;;;;;;20.23;9.25;;;;;;;6.82;100.00;102128.28;5101480;29;20031;-75
2023/12/18 09:20:23;;;;;;;18.20;9.23;;;;;;;6.86;100.00;102117.03;5108620;29;20037;-75
2023/12/18 09:22:53;;;;;;;21.25;8.93;;;;;;;6.92;100.00;102118.81;5105734;29;20066;-74
2023/12/18 09:25:24;;;;;;;20.92;9.00;;;;;;;6.98;100.00;102111.00;5110033;29;20041;-75
2023/12/18 09:27:54;;;;;;;22.15;9.90;;;;;;;7.06;100.00;102111.91;5105317;29;20024;-75
2023/12/18 09:30:24;;;;;;;22.60;9.07;;;;;;;7.02;100.00;102117.94;5104023;28;20030;-75
2023/12/18 09:32:54;;;;;;;20.08;8.35;;;;;;;6.97;100.00;102112.72;5110115;29;20094;-75
2023/12/18 09:35:25;;;;;;;17.27;8.05;;;;;;;6.97;100.00;102106.69;5113156;28;20078;-75
2023/12/18 09:37:55;;;;;;;16.40;7.35;;;;;;;7.08;100.00;102090.25;5104538;28;20122;-75
2023/12/18 09:40:26;;;;;;;18.02;7.43;;;;;;;7.15;100.00;102085.94;5103947;29;20066;-75
2023/12/18 09:42:57;;;;;;;14.60;7.15;;;;;;;7.11;99.77;102085.06;5104745;28;20118;-75
2023/12/18 09:45:28;;;;;;;16.27;6.65;;;;;;;7.11;100.00;102079.00;5108881;29;20044;-75
2023/12/18 09:47:59;;;;;;;17.17;7.10;;;;;;;7.17;99.87;102077.28;5103718;28;20113;-74
2023/12/18 09:50:30;;;;;;;13.13;6.10;;;;;;;7.16;98.83;102074.66;5108457;28;20194;-75
2023/12/18 09:53:08;;;;;;;14.07;6.72;;;;;;;7.20;98.48;102079.91;5101635;29;20210;-75
2023/12/18 09:55:39;;;;;;;15.70;6.53;;;;;;;7.12;98.35;102078.13;5108078;29;20062;-75
2023/12/18 09:58:13;;;;;;;15.45;6.72;;;;;;;7.10;99.44;102078.13;5108588;29;20118;-75
2023/12/18 10:00:44;;;;;;;13.77;6.68;;;;;;;7.24;99.45;102085.97;5104816;28;20027;-74
2023/12/18 10:03:16;;;;;;;16.65;6.88;;;;;;;7.13;99.28;102078.13;5106003;28;20478;-74
2023/12/18 10:05:46;;;;;;;13.73;5.95;;;;;;;7.17;98.53;102074.69;5107439;28;20027;-72
2023/12/18 10:08:17;;;;;;;16.27;6.88;;;;;;;7.25;98.68;102079.91;5108350;29;20059;-75
2023/12/18 10:10:47;;;;;;;13.82;6.55;;;;;;;7.32;99.16;102085.13;5103565;29;20058;-72
2023/12/18 10:13:17;;;;;;;14.50;6.20;;;;;;;7.42;98.43;102079.06;5102895;28;20340;-75
2023/12/18 10:15:48;;;;;;;14.10;6.40;;;;;;;7.53;96.67;102073.00;5104096;29;20512;-74
2023/12/18 10:18:22;;;;;;;18.08;6.97;;;;;;;7.55;96.53;102060.84;5106849;29;20039;-75
2023/12/18 10:20:52;;;;;;;12.77;5.60;;;;;;;7.57;96.78;102066.94;5103709;29;20210;-75
2023/12/18 10:23:23;;;;;;;12.90;6.55;;;;;;;7.52;96.57;102066.06;5107002;29;20028;-75
2023/12/18 10:25:53;;;;;;;15.73;6.35;;;;;;;7.67;96.92;102052.19;5109030;28;20039;-75
2023/12/18 10:28:23;;;;;;;16.95;6.35;;;;;;;7.67;95.73;102055.66;5112045;28;20082;-75
2023/12/18 10:30:54;;;;;;;12.32;5.78;;;;;;;7.52;96.50;102055.66;5108088;29;20035;-75
2023/12/18 10:33:25;;;;;;;13.07;5.82;;;;;;;7.57;96.89;102051.34;5109434;29;20630;-75
2023/12/18 10:35:58;;;;;;;14.82;6.20;;;;;;;7.64;97.53;102057.38;5105962;29;20489;-74
2023/12/18 10:38:30;;;;;;;17.48;5.68;;;;;;;7.78;96.08;102056.53;5104541;29;20099;-75
2023/12/18 10:41:02;;;;;;;10.90;5.82;;;;;;;7.86;97.07;102048.72;5103815;29;20547;-74
2023/12/18 10:43:36;;;;;;;13.35;6.32;;;;;;;7.74;95.74;102039.16;5106932;28;20023;-75
2023/12/18 10:46:09;;;;;;;12.63;6.00;;;;;;;7.71;96.92;102048.72;5107442;28;20027;-74
2023/12/18 10:48:41;;;;;;;13.80;6.03;;;;;;;7.64;97.07;102046.97;5112674;29;20055;-75
2023/12/18 10:51:12;;;;;;;12.38;6.22;;;;;;;7.62;98.17;102047.00;5103580;29;20098;-75
2023/12/18 10:53:42;;;;;;;11.85;5.43;;;;;;;7.64;97.15;102042.66;5106798;28;20537;-75
2023/12/18 10:56:16;;;;;;;12.48;6.07;;;;;;;7.62;97.51;102036.59;5089301;29;20038;-75
2023/12/18 10:58:49;;;;;;;11.93;5.47;;;;;;;7.65;96.44;102033.97;5103861;29;20035;-75
2023/12/18 11:01:19;;;;;;;13.82;5.88;;;;;;;7.78;97.65;102029.63;5104265;28;20594;-74
2023/12/18 11:03:50;;;;;;;15.52;5.88;;;;;;;7.65;97.61;102035.69;5106872;29;20058;-74
2023/12/18 11:06:21;;;;;;;11.55;5.53;;;;;;;7.69;98.91;102034.84;5106043;29;20039;-75
2023/12/18 11:08:51;;;;;;;11.82;6.10;;;;;;;7.71;98.93;102031.34;5108865;29;20564;-75
2023/12/18 11:11:24;;;;;;;13.68;5.45;;;;;;;7.69;98.34;102025.28;5107640;29;20435;-74
2023/12/18 11:14:14;;;;;;;13.13;5.88;;;;;;;7.68;97.91;102028.75;5100462;28;20059;-75
2023/12/18 11:17:00;;;;;;;12.43;5.60;;;;;;;7.68;98.80;102025.31;5100427;29;20576;-75
2023/12/18 11:19:45;;;;;;;13.23;5.80;;;;;;;7.70;97.92;102024.41;5102143;29;20532;-74
2023/12/18 11:22:16;;;;;;;13.00;5.40;;;;;;;7.77;97.84;102007.94;5106862;29;20110;-74
2023/12/18 11:24:47;;;;;;;13.35;5.93;;;;;;;7.73;97.84;102002.75;5111611;28;20551;-75
2023/12/18 11:27:17;;;;;;;12.70;5.43;;;;;;;7.68;97.39;102002.75;5107530;29;20555;-75
2023/12/18 11:29:48;;;;;;;11.80;5.65;;;;;;;7.62;98.61;101997.56;5109386;28;20397;-75
2023/12/18 11:32:44;;;;;;;13.32;5.30;;;;;;;7.68;98.22;101992.34;5096976;28;20035;-75